createdAt,value
2022-11-23T00:01:33.472Z,9.10
2022-11-23T00:04:07.494Z,9.10
2022-11-23T00:06:35.373Z,9.10
2022-11-23T00:09:02.382Z,9.10
2022-11-23T00:11:29.678Z,9.10
2022-11-23T00:13:57.006Z,9.10
2022-11-23T00:16:27.939Z,9.10
2022-11-23T00:19:00.813Z,9.10
2022-11-23T00:21:31.361Z,9.10
2022-11-23T00:23:58.886Z,9.10
2022-11-23T00:26:26.192Z,9.10
2022-11-23T00:28:53.043Z,9.10
2022-11-23T00:31:21.822Z,9.10
2022-11-23T00:33:58.331Z,9.10
2022-11-23T00:36:27.435Z,9.20
2022-11-23T00:38:54.909Z,9.10
2022-11-23T00:41:26.035Z,9.10
2022-11-23T00:43:53.185Z,9.20
2022-11-23T00:46:27.992Z,9.20
2022-11-23T00:48:57.258Z,9.10
2022-11-23T00:51:32.590Z,9.10
2022-11-23T00:54:00.978Z,9.20
2022-11-23T00:56:29.823Z,9.10
2022-11-23T00:58:59.089Z,9.10
2022-11-23T01:01:30.824Z,9.20
2022-11-23T01:03:59.622Z,9.10
2022-11-23T01:06:39.583Z,9.10
2022-11-23T01:09:18.388Z,9.10
2022-11-23T01:11:45.904Z,9.20
2022-11-23T01:14:12.870Z,9.20
2022-11-23T01:16:41.649Z,9.20
2022-11-23T01:19:19.961Z,9.20
2022-11-23T01:21:50.247Z,9.20
2022-11-23T01:24:21.045Z,9.20
2022-11-23T01:26:55.193Z,9.20
2022-11-23T01:29:24.402Z,9.20
2022-11-23T01:31:51.207Z,9.20
2022-11-23T01:34:18.407Z,9.20
2022-11-23T01:36:45.599Z,9.20
2022-11-23T01:39:13.170Z,9.20
2022-11-23T01:41:42.795Z,9.20
2022-11-23T01:44:32.266Z,9.20
2022-11-23T01:47:08.637Z,9.10
2022-11-23T01:49:43.832Z,9.20
2022-11-23T01:52:24.294Z,9.10
2022-11-23T01:54:55.758Z,9.20
2022-11-23T01:57:39.039Z,9.20
2022-11-23T02:00:08.215Z,9.20
2022-11-23T02:02:58.331Z,9.20
2022-11-23T02:05:35.170Z,9.10
2022-11-23T02:08:03.326Z,9.10
2022-11-23T02:10:32.250Z,9.10
2022-11-23T02:13:10.981Z,9.10
2022-11-23T02:15:38.405Z,9.10
2022-11-23T02:18:15.755Z,9.10
2022-11-23T02:20:46.066Z,9.10
2022-11-23T02:24:00.273Z,9.10
2022-11-23T02:26:33.126Z,9.10
2022-11-23T02:29:20.500Z,9.10
2022-11-23T02:31:47.439Z,9.10
2022-11-23T02:34:14.931Z,9.00
2022-11-23T02:36:54.837Z,9.00
2022-11-23T02:39:32.967Z,9.10
2022-11-23T02:42:00.838Z,9.00
2022-11-23T02:47:26.368Z,9.00
2022-11-23T02:52:37.517Z,9.00
2022-11-23T02:55:04.515Z,9.00
2022-11-23T02:57:31.444Z,9.00
2022-11-23T02:59:58.181Z,9.00
2022-11-23T03:02:25.012Z,9.00
2022-11-23T03:04:53.186Z,8.90
2022-11-23T03:07:20.434Z,8.90
2022-11-23T03:09:48.917Z,8.90
2022-11-23T03:12:16.655Z,8.90
2022-11-23T03:14:43.632Z,8.90
2022-11-23T03:17:10.953Z,8.90
2022-11-23T03:19:41.196Z,8.90
2022-11-23T03:22:08.661Z,8.90
2022-11-23T03:24:35.712Z,8.90
2022-11-23T03:27:04.912Z,8.90
2022-11-23T03:29:33.381Z,8.90
2022-11-23T03:32:05.679Z,8.90
2022-11-23T03:34:32.914Z,9.00
2022-11-23T03:36:59.794Z,9.00
2022-11-23T03:39:26.586Z,9.00
2022-11-23T03:41:59.238Z,9.00
2022-11-23T03:44:32.054Z,8.90
2022-11-23T03:46:59.347Z,9.00
2022-11-23T03:49:27.674Z,9.00
2022-11-23T03:51:54.914Z,9.00
2022-11-23T03:54:21.679Z,9.00
2022-11-23T03:56:48.426Z,9.00
2022-11-23T03:59:15.966Z,9.00
2022-11-23T04:01:42.810Z,8.90
2022-11-23T04:04:18.833Z,9.00
2022-11-23T04:07:00.226Z,8.90
2022-11-23T04:09:31.817Z,9.00
2022-11-23T04:12:19.814Z,9.00
2022-11-23T04:14:46.669Z,9.00
2022-11-23T04:17:13.428Z,9.00
2022-11-23T04:19:40.239Z,9.00
2022-11-23T04:22:07.753Z,9.00
2022-11-23T04:24:39.865Z,9.00
2022-11-23T04:27:08.324Z,9.00
2022-11-23T04:29:35.311Z,9.00
2022-11-23T04:32:02.130Z,9.00
2022-11-23T04:34:28.914Z,9.00
2022-11-23T04:36:55.747Z,9.10
2022-11-23T04:39:29.950Z,9.10
2022-11-23T04:42:14.335Z,9.00
2022-11-23T04:44:47.463Z,9.00
2022-11-23T04:47:14.299Z,9.00
2022-11-23T04:49:41.062Z,9.00
2022-11-23T04:52:08.247Z,9.00
2022-11-23T04:54:42.118Z,9.00
2022-11-23T04:57:09.718Z,9.00
2022-11-23T04:59:38.388Z,9.00
2022-11-23T05:02:05.605Z,8.90
2022-11-23T05:04:38.441Z,8.90
2022-11-23T05:07:06.199Z,8.90
2022-11-23T05:09:34.969Z,8.90
2022-11-23T05:12:10.135Z,8.90
2022-11-23T05:14:37.026Z,8.90
2022-11-23T05:17:04.313Z,8.90
2022-11-23T05:19:31.387Z,8.90
2022-11-23T05:21:58.717Z,8.90
2022-11-23T05:24:26.005Z,8.90
2022-11-23T05:27:04.577Z,8.90
2022-11-23T05:29:31.671Z,9.00
2022-11-23T05:31:58.550Z,9.00
2022-11-23T05:34:25.427Z,9.00
2022-11-23T05:36:52.202Z,9.00
2022-11-23T05:39:20.070Z,9.00
2022-11-23T05:41:50.257Z,9.00
2022-11-23T05:44:30.197Z,9.00
2022-11-23T05:46:57.517Z,9.10
2022-11-23T05:49:25.008Z,9.10
2022-11-23T05:51:52.242Z,9.10
2022-11-23T05:54:19.674Z,9.10
2022-11-23T05:56:56.437Z,9.10
2022-11-23T05:59:30.929Z,9.10
2022-11-23T06:02:01.574Z,9.20
2022-11-23T06:04:32.064Z,9.20
2022-11-23T06:07:01.018Z,9.10
2022-11-23T06:09:33.186Z,9.20
2022-11-23T06:12:06.439Z,9.20
2022-11-23T06:14:34.491Z,9.20
2022-11-23T06:17:01.354Z,9.20
2022-11-23T06:19:34.252Z,9.10
2022-11-23T06:22:02.135Z,9.10
2022-11-23T06:24:32.809Z,9.10
2022-11-23T06:27:25.598Z,9.10
2022-11-23T06:29:52.569Z,9.10
2022-11-23T06:32:21.449Z,9.10
2022-11-23T06:34:48.327Z,9.10
2022-11-23T06:37:15.202Z,9.00
2022-11-23T06:39:45.299Z,9.00
2022-11-23T06:45:00.318Z,9.00
2022-11-23T06:47:29.357Z,9.00
2022-11-23T06:49:57.457Z,8.90
2022-11-23T06:52:27.919Z,8.90
2022-11-23T06:54:55.090Z,8.90
2022-11-23T06:57:24.032Z,8.80
2022-11-23T06:59:51.172Z,8.70
2022-11-23T07:02:23.935Z,8.70
2022-11-23T07:04:52.912Z,8.60
2022-11-23T07:07:20.193Z,8.60
2022-11-23T07:09:57.418Z,8.50
2022-11-23T07:12:32.225Z,8.50
2022-11-23T07:15:01.109Z,8.50
2022-11-23T07:17:33.377Z,8.40
2022-11-23T07:20:00.228Z,8.40
2022-11-23T07:22:26.984Z,8.30
2022-11-23T07:24:53.843Z,8.20
2022-11-23T07:27:20.721Z,8.20
2022-11-23T07:29:47.707Z,8.20
2022-11-23T07:32:15.497Z,8.20
2022-11-23T07:34:42.608Z,8.20
2022-11-23T07:37:09.447Z,8.30
2022-11-23T07:39:56.426Z,8.30
2022-11-23T07:42:36.757Z,8.30
2022-11-23T07:45:08.220Z,8.30
2022-11-23T07:47:37.455Z,8.40
2022-11-23T07:50:07.096Z,8.40
2022-11-23T07:52:35.741Z,8.40
2022-11-23T07:55:02.686Z,8.40
2022-11-23T07:57:29.659Z,8.40
2022-11-23T07:59:56.558Z,8.40
2022-11-23T08:02:23.922Z,8.50
2022-11-23T08:04:50.769Z,8.50
2022-11-23T08:07:17.625Z,8.60
2022-11-23T08:09:44.502Z,8.50
2022-11-23T08:12:11.297Z,8.60
2022-11-23T08:14:38.023Z,8.60
2022-11-23T08:17:05.368Z,8.60
2022-11-23T08:19:32.216Z,8.70
2022-11-23T08:21:59.015Z,8.70
2022-11-23T08:24:25.961Z,8.70
2022-11-23T08:26:52.744Z,8.70
2022-11-23T08:29:20.046Z,8.70
2022-11-23T08:31:47.421Z,8.70
2022-11-23T08:34:14.439Z,8.70
2022-11-23T08:36:41.458Z,8.60
2022-11-23T08:39:11.186Z,8.60
2022-11-23T08:41:38.499Z,8.60
2022-11-23T08:44:05.957Z,8.60
2022-11-23T08:46:32.954Z,8.60
2022-11-23T08:48:59.907Z,8.70
2022-11-23T08:51:26.933Z,8.70
2022-11-23T08:53:53.829Z,8.70
2022-11-23T08:56:20.941Z,8.80
2022-11-23T08:58:47.932Z,8.80
2022-11-23T09:01:17.474Z,8.80
2022-11-23T09:03:45.399Z,8.80
2022-11-23T09:06:12.851Z,8.80
2022-11-23T09:08:39.927Z,8.90
2022-11-23T09:11:11.409Z,8.90
2022-11-23T09:13:39.306Z,8.90
2022-11-23T09:16:07.853Z,9.00
2022-11-23T09:18:36.578Z,9.00
2022-11-23T09:21:05.802Z,9.00
2022-11-23T09:23:33.247Z,9.00
2022-11-23T09:26:01.654Z,9.10
2022-11-23T09:28:29.455Z,9.20
2022-11-23T09:30:57.541Z,9.50
2022-11-23T09:33:25.612Z,9.60
2022-11-23T09:36:01.006Z,9.60
2022-11-23T09:38:54.634Z,9.70
2022-11-23T09:41:56.743Z,9.70
2022-11-23T09:45:00.608Z,9.70
2022-11-23T09:48:19.797Z,9.80
2022-11-23T09:51:18.938Z,9.90
2022-11-23T09:53:52.203Z,10.00
2022-11-23T09:56:25.154Z,9.90
2022-11-23T09:58:57.698Z,10.00
2022-11-23T10:01:27.697Z,9.90
2022-11-23T10:03:55.332Z,9.90
2022-11-23T10:06:29.230Z,9.90
2022-11-23T10:09:29.566Z,10.10
2022-11-23T10:12:30.202Z,10.20
2022-11-23T10:15:12.194Z,10.30
2022-11-23T10:18:09.191Z,10.30
2022-11-23T10:21:00.550Z,10.30
2022-11-23T10:24:06.039Z,10.40
2022-11-23T10:26:39.939Z,10.30
2022-11-23T10:29:36.793Z,10.30
2022-11-23T10:32:12.706Z,10.30
2022-11-23T10:35:16.065Z,10.20
2022-11-23T10:37:43.666Z,10.30
2022-11-23T10:40:26.446Z,10.30
2022-11-23T10:43:11.393Z,10.40
2022-11-23T10:45:38.211Z,10.40
2022-11-23T10:48:05.305Z,10.30
2022-11-23T10:50:40.267Z,10.30
2022-11-23T10:53:23.252Z,10.10
2022-11-23T10:55:55.107Z,10.00
2022-11-23T10:58:35.127Z,10.20
2022-11-23T11:01:06.398Z,10.30
2022-11-23T11:03:35.570Z,10.30
2022-11-23T11:06:11.578Z,10.30
2022-11-23T11:09:03.796Z,10.20
2022-11-23T11:11:37.288Z,10.10
2022-11-23T11:14:19.922Z,10.10
2022-11-23T11:16:56.022Z,10.10
2022-11-23T11:19:34.481Z,10.00
2022-11-23T11:22:32.113Z,9.90
2022-11-23T11:24:59.194Z,9.90
2022-11-23T11:27:29.674Z,9.90
2022-11-23T11:30:05.568Z,10.00
2022-11-23T11:32:44.077Z,10.00
2022-11-23T11:35:27.212Z,10.00
2022-11-23T11:38:08.008Z,9.90
2022-11-23T11:40:52.481Z,10.00
2022-11-23T11:43:45.619Z,10.10
2022-11-23T11:46:28.990Z,10.10
2022-11-23T11:49:14.941Z,10.20
2022-11-23T11:51:49.817Z,10.10
2022-11-23T11:54:44.609Z,10.00
2022-11-23T11:57:20.522Z,10.00
2022-11-23T11:59:53.069Z,10.00
2022-11-23T12:02:42.899Z,10.00
2022-11-23T12:05:36.711Z,10.00
2022-11-23T12:08:29.331Z,9.90
2022-11-23T12:11:00.157Z,9.90
2022-11-23T12:13:36.839Z,10.00
2022-11-23T12:16:30.660Z,10.00
2022-11-23T12:19:20.578Z,10.00
2022-11-23T12:22:23.378Z,10.00
2022-11-23T12:25:24.682Z,10.00
2022-11-23T12:28:25.237Z,10.10
2022-11-23T12:31:28.451Z,10.10
2022-11-23T12:34:24.887Z,10.10
2022-11-23T12:37:04.391Z,10.20
2022-11-23T12:40:24.566Z,10.30
2022-11-23T12:43:06.101Z,10.20
2022-11-23T12:46:00.271Z,10.30
2022-11-23T12:48:42.105Z,10.30
2022-11-23T12:51:44.942Z,10.30
2022-11-23T12:54:31.736Z,10.30
2022-11-23T12:57:31.413Z,10.30
2022-11-23T13:00:08.069Z,10.20
2022-11-23T13:02:56.730Z,10.20
2022-11-23T13:06:00.182Z,10.20
2022-11-23T13:09:03.765Z,10.10
2022-11-23T13:12:15.157Z,10.20
2022-11-23T13:15:12.274Z,10.20
2022-11-23T13:17:57.079Z,10.20
2022-11-23T13:20:49.150Z,10.20
2022-11-23T13:23:21.580Z,10.30
2022-11-23T13:26:17.510Z,10.30
2022-11-23T13:28:53.274Z,10.40
2022-11-23T13:31:30.311Z,10.40
2022-11-23T13:34:03.952Z,10.40
2022-11-23T13:36:56.355Z,10.30
2022-11-23T13:39:51.717Z,10.30
2022-11-23T13:42:19.322Z,10.20
2022-11-23T13:44:46.176Z,10.10
2022-11-23T13:47:20.069Z,10.00
2022-11-23T13:49:50.538Z,9.80
2022-11-23T13:52:23.299Z,9.70
2022-11-23T13:55:10.562Z,9.70
2022-11-23T13:57:43.487Z,9.60
2022-11-23T14:00:49.252Z,9.60
2022-11-23T14:03:47.693Z,9.50
2022-11-23T14:06:35.837Z,9.50
2022-11-23T14:09:30.918Z,9.40
2022-11-23T14:12:33.557Z,9.40
2022-11-23T14:15:22.213Z,9.30
2022-11-23T14:18:27.599Z,9.30
2022-11-23T14:21:37.162Z,9.30
2022-11-23T14:24:42.895Z,9.30
2022-11-23T14:27:52.314Z,9.30
2022-11-23T14:30:28.172Z,9.30
2022-11-23T14:33:24.864Z,9.30
2022-11-23T14:36:20.018Z,9.40
2022-11-23T14:38:52.837Z,9.30
2022-11-23T14:41:28.408Z,9.20
2022-11-23T14:43:58.143Z,9.30
2022-11-23T14:46:25.711Z,9.30
2022-11-23T14:49:03.565Z,9.20
2022-11-23T14:51:31.571Z,9.30
2022-11-23T14:54:06.891Z,9.30
2022-11-23T14:56:47.411Z,9.20
2022-11-23T14:59:17.131Z,9.20
2022-11-23T15:02:35.195Z,9.30
2022-11-23T15:05:19.001Z,9.20
2022-11-23T15:08:09.286Z,9.30
2022-11-23T15:10:38.926Z,9.30
2022-11-23T15:13:22.597Z,9.30
2022-11-23T15:15:58.125Z,9.30
2022-11-23T15:18:39.071Z,9.20
2022-11-23T15:21:12.171Z,9.20
2022-11-23T15:23:42.566Z,9.20
2022-11-23T15:26:48.862Z,9.20
2022-11-23T15:29:38.482Z,9.20
2022-11-23T15:32:33.743Z,9.30
2022-11-23T15:35:13.992Z,9.20
2022-11-23T15:37:49.829Z,9.20
2022-11-23T15:40:19.317Z,9.20
2022-11-23T15:42:51.040Z,9.20
2022-11-23T15:45:57.021Z,9.20
2022-11-23T15:48:35.523Z,9.20
2022-11-23T15:51:08.408Z,9.20
2022-11-23T15:53:53.205Z,9.20
2022-11-23T15:56:31.913Z,9.20
2022-11-23T15:59:31.558Z,9.20
2022-11-23T16:02:04.228Z,9.20
2022-11-23T16:04:41.211Z,9.20
2022-11-23T16:07:26.305Z,9.20
2022-11-23T16:10:19.835Z,9.20
2022-11-23T16:12:58.750Z,9.10
2022-11-23T16:16:00.754Z,9.20
2022-11-23T16:18:27.982Z,9.20
2022-11-23T16:21:01.551Z,9.20
2022-11-23T16:23:47.492Z,9.20
2022-11-23T16:26:15.918Z,9.20
2022-11-23T16:28:58.019Z,9.20
2022-11-23T16:31:38.362Z,9.20
2022-11-23T16:34:18.908Z,9.20
2022-11-23T16:36:46.022Z,9.20
2022-11-23T16:39:13.111Z,9.30
2022-11-23T16:41:40.316Z,9.30
2022-11-23T16:44:07.162Z,9.20
2022-11-23T16:46:35.930Z,9.20
2022-11-23T16:49:14.287Z,9.20
2022-11-23T16:51:41.054Z,9.20
2022-11-23T16:54:13.586Z,9.30
2022-11-23T16:56:41.602Z,9.30
2022-11-23T16:59:18.246Z,9.30
2022-11-23T17:01:53.896Z,9.20
2022-11-23T17:04:24.497Z,9.40
2022-11-23T17:06:51.382Z,9.40
2022-11-23T17:09:18.106Z,9.40
2022-11-23T17:11:48.259Z,9.30
2022-11-23T17:14:29.961Z,9.40
2022-11-23T17:16:56.912Z,9.40
2022-11-23T17:19:23.741Z,9.50
2022-11-23T17:21:50.757Z,9.40
2022-11-23T17:24:17.685Z,9.40
2022-11-23T17:26:52.907Z,9.30
2022-11-23T17:29:21.570Z,9.30
2022-11-23T17:31:50.356Z,9.30
2022-11-23T17:34:17.954Z,9.30
2022-11-23T17:36:48.070Z,9.40
2022-11-23T17:39:21.142Z,9.30
2022-11-23T17:41:48.598Z,9.30
2022-11-23T17:44:17.455Z,9.30
2022-11-23T17:46:46.795Z,9.20
2022-11-23T17:49:17.914Z,9.20
2022-11-23T17:51:44.744Z,9.20
2022-11-23T17:54:12.038Z,9.20
2022-11-23T17:56:39.254Z,9.20
2022-11-23T17:59:08.895Z,9.20
2022-11-23T18:01:35.844Z,9.20
2022-11-23T18:04:04.658Z,9.20
2022-11-23T18:06:31.566Z,9.20
2022-11-23T18:08:58.319Z,9.10
2022-11-23T18:11:25.599Z,9.10
2022-11-23T18:13:52.582Z,9.10
2022-11-23T18:16:21.412Z,9.10
2022-11-23T18:18:50.862Z,9.10
2022-11-23T18:21:18.631Z,9.10
2022-11-23T18:23:45.706Z,9.10
2022-11-23T18:26:25.502Z,9.10
2022-11-23T18:28:53.336Z,9.00
2022-11-23T18:31:20.368Z,9.00
2022-11-23T18:33:47.742Z,9.00
2022-11-23T18:36:17.527Z,9.00
2022-11-23T18:38:47.275Z,8.90
2022-11-23T18:41:16.688Z,8.90
2022-11-23T18:43:45.111Z,8.80
2022-11-23T18:46:21.677Z,8.90
2022-11-23T18:48:50.558Z,8.90
2022-11-23T18:51:18.518Z,8.90
2022-11-23T18:53:47.519Z,8.80
2022-11-23T18:56:14.539Z,8.80
2022-11-23T18:58:44.483Z,8.70
2022-11-23T19:01:18.458Z,8.70
2022-11-23T19:03:48.133Z,8.70
2022-11-23T19:06:17.974Z,8.70
2022-11-23T19:08:53.267Z,8.70
2022-11-23T19:11:29.394Z,8.60
2022-11-23T19:14:00.410Z,8.60
2022-11-23T19:16:31.228Z,8.60
2022-11-23T19:19:01.699Z,8.60
2022-11-23T19:21:31.760Z,8.60
2022-11-23T19:24:00.256Z,8.50
2022-11-23T19:26:29.789Z,8.50
2022-11-23T19:28:57.355Z,8.50
2022-11-23T19:31:30.611Z,8.40
2022-11-23T19:34:05.807Z,8.50
2022-11-23T19:36:38.428Z,8.50
2022-11-23T19:39:06.201Z,8.50
2022-11-23T19:41:33.313Z,8.40
2022-11-23T19:44:01.664Z,8.40
2022-11-23T19:46:30.630Z,8.30
2022-11-23T19:48:58.634Z,8.40
2022-11-23T19:51:27.348Z,8.40
2022-11-23T19:53:57.469Z,8.40
2022-11-23T19:56:28.675Z,8.30
2022-11-23T19:58:58.622Z,8.40
2022-11-23T20:01:36.216Z,8.30
2022-11-23T20:04:09.323Z,8.30
2022-11-23T20:06:42.246Z,8.30
2022-11-23T20:09:13.389Z,8.30
2022-11-23T20:11:40.825Z,8.20
2022-11-23T20:14:11.746Z,8.20
2022-11-23T20:16:39.299Z,8.20
2022-11-23T20:19:08.912Z,8.10
2022-11-23T20:21:37.973Z,8.10
2022-11-23T20:24:13.823Z,8.10
2022-11-23T20:26:42.778Z,8.10
2022-11-23T20:29:10.857Z,8.10
2022-11-23T20:31:38.422Z,8.10
2022-11-23T20:34:08.127Z,8.10
2022-11-23T20:36:38.326Z,8.10
2022-11-23T20:39:09.618Z,8.00
2022-11-23T20:41:37.858Z,8.10
2022-11-23T20:44:13.548Z,8.10
2022-11-23T20:49:29.790Z,8.10
2022-11-23T20:51:56.874Z,8.10
2022-11-23T20:54:23.665Z,8.10
2022-11-23T20:56:50.435Z,8.10
2022-11-23T20:59:17.309Z,8.20
2022-11-23T21:01:44.221Z,8.10
2022-11-23T21:04:11.006Z,8.10
2022-11-23T21:06:39.888Z,8.20
2022-11-23T21:09:09.056Z,8.20
2022-11-23T21:11:54.581Z,8.20
2022-11-23T21:14:25.393Z,8.20
2022-11-23T21:16:55.840Z,8.20
2022-11-23T21:19:32.179Z,8.20
2022-11-23T21:22:04.524Z,8.20
2022-11-23T21:24:32.025Z,8.20
2022-11-23T21:26:59.046Z,8.10
2022-11-23T21:29:26.118Z,8.10
2022-11-23T21:31:53.493Z,8.20
2022-11-23T21:34:29.262Z,8.20
2022-11-23T21:36:58.939Z,8.10
2022-11-23T21:39:25.891Z,8.10
2022-11-23T21:41:54.394Z,8.10
2022-11-23T21:44:24.813Z,8.20
2022-11-23T21:46:51.855Z,8.10
2022-11-23T21:49:18.778Z,8.10
2022-11-23T21:51:45.951Z,8.10
2022-11-23T21:54:16.431Z,8.10
2022-11-23T21:56:45.508Z,8.10
2022-11-23T21:59:12.852Z,8.20
2022-11-23T22:01:40.614Z,8.20
2022-11-23T22:04:15.186Z,8.20
2022-11-23T22:06:44.307Z,8.20
2022-11-23T22:09:12.914Z,8.20
2022-11-23T22:11:42.989Z,8.20
2022-11-23T22:14:15.899Z,8.30
2022-11-23T22:16:53.571Z,8.30
2022-11-23T22:19:20.397Z,8.30
2022-11-23T22:21:47.321Z,8.40
2022-11-23T22:24:19.466Z,8.50
2022-11-23T22:26:47.700Z,8.50
2022-11-23T22:29:15.476Z,8.40
2022-11-23T22:31:43.472Z,8.40
2022-11-23T22:34:13.065Z,8.40
2022-11-23T22:36:40.338Z,8.40
2022-11-23T22:39:08.718Z,8.40
2022-11-23T22:41:37.311Z,8.40
2022-11-23T22:44:10.206Z,8.40
2022-11-23T22:46:38.589Z,8.40
2022-11-23T22:49:05.732Z,8.40
2022-11-23T22:51:32.975Z,8.40
2022-11-23T22:54:01.500Z,8.50
2022-11-23T22:56:30.574Z,8.50
2022-11-23T22:58:57.607Z,8.60
2022-11-23T23:01:28.894Z,8.70
2022-11-23T23:03:58.852Z,8.70
2022-11-23T23:06:29.352Z,8.70
2022-11-23T23:09:01.176Z,8.70
2022-11-23T23:11:30.507Z,8.70
2022-11-23T23:13:58.206Z,8.50
2022-11-23T23:16:26.238Z,8.60
2022-11-23T23:18:56.676Z,8.60
2022-11-23T23:21:24.640Z,8.60
2022-11-23T23:23:55.778Z,8.60
2022-11-23T23:26:26.113Z,8.70
2022-11-23T23:29:00.713Z,8.70
2022-11-23T23:31:29.697Z,8.70
2022-11-23T23:33:57.102Z,8.70
2022-11-23T23:36:24.731Z,8.80
2022-11-23T23:38:51.995Z,8.80
2022-11-23T23:41:19.327Z,8.80
2022-11-23T23:43:47.935Z,8.80
2022-11-23T23:46:15.339Z,8.80
2022-11-23T23:48:42.496Z,8.80
2022-11-23T23:51:19.164Z,8.80
2022-11-23T23:53:47.245Z,8.80
2022-11-23T23:56:19.763Z,8.90
2022-11-23T23:58:46.935Z,8.80
